Time;durP1;ratioP1;P1;durP2;ratioP2;P2;SDS_P1;SDS_P2;PMS_P1;PMS_P2;Temp;Humidity;BMP_temperature;BMP_pressure;BME280_temperature;BME280_humidity;BME280_pressure;Samples;Min_cycle;Max_cycle;Signal;HPM_P1;HPM_P2
2023/02/06 00:00:22;;;;;;;9.60;2.72;;;5.80;99.90;;;;;;5071000;28;20254;-79
2023/02/06 00:02:49;;;;;;;12.23;2.92;;;5.70;99.90;;;;;;5054509;28;20168;-79
2023/02/06 00:05:15;;;;;;;16.13;2.58;;;5.70;99.90;;;;;;5076588;28;20176;-78
2023/02/06 00:07:41;;;;;;;6.80;2.42;;;5.70;99.90;;;;;;5070706;28;20220;-78
2023/02/06 00:10:07;;;;;;;7.90;2.23;;;5.70;99.90;;;;;;5072091;28;20824;-78
2023/02/06 00:12:34;;;;;;;11.23;3.08;;;5.70;99.90;;;;;;5070800;28;20583;-78
2023/02/06 00:15:00;;;;;;;6.85;2.55;;;5.70;99.90;;;;;;5070689;28;20192;-78
2023/02/06 00:17:26;;;;;;;12.35;3.55;;;5.70;99.90;;;;;;5071771;28;20210;-78
2023/02/06 00:19:52;;;;;;;9.33;2.73;;;5.70;99.90;;;;;;5053843;28;20200;-78
2023/02/06 00:22:18;;;;;;;12.10;3.07;;;5.60;99.90;;;;;;5071719;28;20258;-78
2023/02/06 00:24:43;;;;;;;8.47;2.40;;;5.60;99.90;;;;;;5070614;28;20776;-78
2023/02/06 00:27:09;;;;;;;11.57;2.33;;;5.60;99.90;;;;;;5071249;28;20221;-78
2023/02/06 00:29:35;;;;;;;14.70;3.07;;;5.50;99.90;;;;;;5070549;28;20172;-78
2023/02/06 00:32:00;;;;;;;9.33;2.83;;;5.50;99.90;;;;;;5069964;28;20184;-78
2023/02/06 00:34:26;;;;;;;13.70;2.80;;;5.50;99.90;;;;;;5070594;28;20644;-78
2023/02/06 00:36:52;;;;;;;14.23;2.60;;;5.50;99.90;;;;;;5071016;28;20607;-78
2023/02/06 00:39:18;;;;;;;11.87;3.27;;;5.50;99.90;;;;;;5053718;28;20214;-78
2023/02/06 00:41:44;;;;;;;11.82;3.22;;;5.50;99.90;;;;;;5072649;28;20169;-79
2023/02/06 00:44:10;;;;;;;7.40;2.60;;;5.40;99.90;;;;;;5053763;28;20259;-78
2023/02/06 00:46:36;;;;;;;22.35;3.50;;;5.40;99.90;;;;;;5035985;28;21226;-78
2023/02/06 00:49:02;;;;;;;11.83;2.63;;;5.40;99.90;;;;;;5069185;28;20173;-78
2023/02/06 00:51:28;;;;;;;15.80;3.35;;;5.30;99.90;;;;;;5069521;28;20270;-79
2023/02/06 00:53:54;;;;;;;11.32;3.20;;;5.30;99.90;;;;;;5053239;28;20176;-78
2023/02/06 00:56:19;;;;;;;10.33;2.17;;;5.30;99.90;;;;;;5069584;28;20202;-78
2023/02/06 00:58:45;;;;;;;11.73;3.38;;;5.30;99.90;;;;;;5069511;28;20235;-78
2023/02/06 01:01:11;;;;;;;7.07;2.90;;;5.20;99.90;;;;;;5069682;28;20171;-78
2023/02/06 01:03:38;;;;;;;12.98;3.13;;;5.20;99.90;;;;;;5070937;28;20658;-78
2023/02/06 01:06:03;;;;;;;14.37;2.70;;;5.20;99.90;;;;;;5069379;28;20284;-78
2023/02/06 01:08:29;;;;;;;11.77;2.37;;;5.20;99.90;;;;;;5052756;28;20180;-78
2023/02/06 01:10:58;;;;;;;11.02;2.00;;;5.10;99.90;;;;;;5053416;28;20227;-79
2023/02/06 01:13:24;;;;;;;10.07;1.90;;;5.10;99.90;;;;;;5052415;28;20164;-78
2023/02/06 01:15:49;;;;;;;13.47;2.57;;;5.10;99.90;;;;;;5052963;28;20602;-79
2023/02/06 01:18:15;;;;;;;7.43;2.43;;;5.00;99.90;;;;;;5070354;28;20615;-79
2023/02/06 01:20:41;;;;;;;9.17;2.30;;;5.00;99.90;;;;;;5058189;28;20172;-78
2023/02/06 01:23:07;;;;;;;11.73;2.73;;;5.00;99.90;;;;;;5070598;28;20310;-78
2023/02/06 01:25:32;;;;;;;10.83;2.50;;;4.90;99.90;;;;;;5069700;28;20330;-78
2023/02/06 01:27:58;;;;;;;7.70;3.10;;;4.90;99.90;;;;;;5069199;28;20192;-78
2023/02/06 01:30:24;;;;;;;12.63;2.87;;;4.90;99.90;;;;;;5069389;28;20183;-78
2023/02/06 01:32:49;;;;;;;11.00;3.37;;;4.90;99.90;;;;;;5070896;28;20663;-78
2023/02/06 01:35:15;;;;;;;11.43;3.07;;;4.80;99.90;;;;;;5070638;28;20177;-78
2023/02/06 01:37:41;;;;;;;11.67;2.87;;;4.80;99.90;;;;;;5052668;28;20664;-78
2023/02/06 01:40:11;;;;;;;11.97;2.33;;;4.80;99.90;;;;;;5069162;28;20648;-78
2023/02/06 01:42:37;;;;;;;9.68;3.55;;;4.80;99.90;;;;;;5052603;28;20583;-78
2023/02/06 01:45:36;;;;;;;14.32;3.70;;;4.70;99.90;;;;;;5052617;28;20176;-78
2023/02/06 01:48:06;;;;;;;15.63;3.00;;;4.70;99.90;;;;;;5047513;28;20767;-78
2023/02/06 01:50:34;;;;;;;8.70;3.30;;;4.70;99.90;;;;;;5060817;28;20832;-78
2023/02/06 01:53:04;;;;;;;21.25;3.65;;;4.70;99.90;;;;;;5052370;28;20190;-78
2023/02/06 01:55:29;;;;;;;12.65;3.20;;;4.60;99.90;;;;;;5068893;28;20590;-78
2023/02/06 01:57:59;;;;;;;8.80;3.30;;;4.70;99.90;;;;;;5071045;28;20201;-77
2023/02/06 02:00:25;;;;;;;12.07;2.67;;;4.60;99.90;;;;;;5052808;28;20204;-78
2023/02/06 02:02:51;;;;;;;8.53;2.10;;;4.60;99.90;;;;;;5056310;28;20239;-78
2023/02/06 02:05:19;;;;;;;13.20;2.90;;;4.60;99.90;;;;;;5054601;28;20958;-78
2023/02/06 02:08:10;;;;;;;9.27;2.55;;;4.60;99.90;;;;;;5035293;28;20189;-78
2023/02/06 02:10:37;;;;;;;10.68;4.50;;;4.60;99.90;;;;;;5053355;28;20707;-78
2023/02/06 02:13:03;;;;;;;15.25;5.15;;;4.50;99.90;;;;;;5052322;28;20642;-78
2023/02/06 02:19:33;;;;;;;15.48;4.40;;;4.50;99.90;;;;;;5054310;28;20630;-78
2023/02/06 02:22:22;;;;;;;14.82;4.22;;;4.50;99.90;;;;;;5035949;28;20280;-80
2023/02/06 02:24:51;;;;;;;13.93;3.75;;;4.50;99.90;;;;;;5053677;28;20176;-79
2023/02/06 02:27:43;;;;;;;18.60;3.70;;;4.40;99.90;;;;;;5052511;28;20248;-78
2023/02/06 02:30:56;;;;;;;17.77;4.22;;;4.40;99.90;;;;;;5053024;28;20184;-78
2023/02/06 02:33:54;;;;;;;11.80;3.20;;;4.40;99.90;;;;;;4988488;28;20185;-78
2023/02/06 02:36:36;;;;;;;11.20;3.15;;;4.30;99.90;;;;;;5035908;28;20617;-77
2023/02/06 02:39:14;;;;;;;8.35;2.60;;;4.30;99.90;;;;;;5035199;28;20210;-78
2023/02/06 02:42:00;;;;;;;15.02;2.60;;;4.30;99.90;;;;;;5035638;28;20176;-78
2023/02/06 02:44:30;;;;;;;8.60;2.63;;;4.30;99.90;;;;;;5035601;28;20165;-78
2023/02/06 02:47:00;;;;;;;16.45;2.80;;;4.30;99.90;;;;;;5052198;28;20588;-78
2023/02/06 02:49:31;;;;;;;11.18;3.67;;;4.20;99.90;;;;;;5035480;28;20657;-78
2023/02/06 02:51:58;;;;;;;9.50;2.35;;;4.30;99.90;;;;;;5052370;28;20696;-78
2023/02/06 02:54:24;;;;;;;21.95;4.25;;;4.20;99.90;;;;;;5051492;28;20168;-78
2023/02/06 02:56:50;;;;;;;12.77;2.70;;;4.30;99.90;;;;;;5051954;28;20201;-78
2023/02/06 02:59:34;;;;;;;12.43;2.87;;;4.20;99.90;;;;;;5051770;28;20201;-78
2023/02/06 03:02:05;;;;;;;12.02;3.80;;;4.20;99.90;;;;;;5051702;28;20181;-78
2023/02/06 03:04:47;;;;;;;15.52;4.07;;;4.20;99.90;;;;;;5053021;28;20657;-78
2023/02/06 03:07:32;;;;;;;12.82;2.47;;;4.20;99.90;;;;;;5053262;28;20189;-78
2023/02/06 03:10:14;;;;;;;14.43;3.85;;;4.20;99.90;;;;;;5035047;28;20173;-79
2023/02/06 03:13:00;;;;;;;10.35;2.20;;;4.20;99.90;;;;;;5037681;28;20440;-78
2023/02/06 03:15:47;;;;;;;10.43;3.00;;;4.20;99.90;;;;;;5050907;28;20188;-79
2023/02/06 03:18:31;;;;;;;12.27;3.00;;;4.10;99.90;;;;;;5051961;28;20192;-78
2023/02/06 03:21:00;;;;;;;10.77;2.97;;;4.10;99.90;;;;;;5052541;28;20177;-79
2023/02/06 03:23:31;;;;;;;14.15;2.83;;;4.10;99.90;;;;;;5052755;28;20169;-78
2023/02/06 03:26:00;;;;;;;10.23;3.20;;;4.10;99.90;;;;;;5052052;28;20173;-78
2023/02/06 03:28:32;;;;;;;13.98;3.00;;;4.10;99.90;;;;;;5051695;28;20170;-78
2023/02/06 03:31:01;;;;;;;13.20;4.38;;;4.00;99.90;;;;;;5051264;28;20254;-78
2023/02/06 03:33:34;;;;;;;13.75;3.45;;;4.00;99.90;;;;;;5051157;28;20178;-78
2023/02/06 03:36:00;;;;;;;12.45;3.17;;;4.00;99.90;;;;;;5050478;28;20185;-78
2023/02/06 03:38:27;;;;;;;14.23;3.70;;;4.00;99.90;;;;;;5051043;28;20192;-78
2023/02/06 03:40:55;;;;;;;7.30;3.03;;;4.00;99.90;;;;;;5052735;28;20191;-78
2023/02/06 03:43:23;;;;;;;8.45;2.83;;;4.00;99.90;;;;;;5051970;28;20912;-78
2023/02/06 03:45:54;;;;;;;8.65;3.38;;;4.00;99.90;;;;;;5050823;28;20177;-78
2023/02/06 03:48:33;;;;;;;10.07;3.15;;;4.00;99.90;;;;;;5055068;28;20169;-78
2023/02/06 03:51:03;;;;;;;12.52;3.38;;;4.00;99.90;;;;;;5051435;28;20268;-78
2023/02/06 03:53:31;;;;;;;12.32;3.53;;;3.90;99.90;;;;;;5052096;28;20165;-78
2023/02/06 03:56:03;;;;;;;6.68;3.58;;;4.00;99.90;;;;;;5050782;28;20187;-78
2023/02/06 03:58:29;;;;;;;11.18;3.15;;;3.90;99.90;;;;;;5050694;28;20215;-78
2023/02/06 04:00:56;;;;;;;6.88;2.50;;;3.90;99.90;;;;;;5034577;28;20180;-78
2023/02/06 04:03:25;;;;;;;13.68;3.70;;;3.90;99.90;;;;;;5050217;28;20219;-78
2023/02/06 04:05:50;;;;;;;16.05;3.83;;;3.90;99.90;;;;;;5050404;28;20173;-77
2023/02/06 04:08:16;;;;;;;11.40;3.27;;;3.90;99.90;;;;;;5050216;28;20173;-78
2023/02/06 04:10:42;;;;;;;13.47;3.50;;;3.90;99.90;;;;;;5052036;28;20169;-78
2023/02/06 04:13:07;;;;;;;14.20;3.07;;;3.90;99.90;;;;;;5050034;28;20184;-78
2023/02/06 04:15:33;;;;;;;11.07;4.30;;;3.90;99.90;;;;;;5017161;28;20191;-78
2023/02/06 04:17:59;;;;;;;10.87;3.80;;;3.90;99.90;;;;;;5050815;28;20250;-78
2023/02/06 04:20:25;;;;;;;15.90;4.40;;;3.90;99.90;;;;;;5050257;28;21216;-78
2023/02/06 04:22:50;;;;;;;8.90;2.67;;;3.90;99.90;;;;;;5033626;28;20184;-78
2023/02/06 04:25:16;;;;;;;10.60;4.13;;;3.90;99.90;;;;;;5054437;28;20173;-78
2023/02/06 04:27:42;;;;;;;11.33;3.23;;;3.90;99.90;;;;;;5051341;28;20201;-78
2023/02/06 04:30:08;;;;;;;10.03;3.17;;;3.80;99.90;;;;;;5050211;28;20169;-78
2023/02/06 04:32:34;;;;;;;8.43;4.13;;;3.80;99.90;;;;;;5050280;28;20181;-78
2023/02/06 04:34:59;;;;;;;15.13;3.70;;;3.80;99.90;;;;;;5049674;28;20522;-79
2023/02/06 04:37:25;;;;;;;10.60;4.40;;;3.80;99.90;;;;;;5033808;28;20556;-79
2023/02/06 04:39:51;;;;;;;7.70;3.50;;;3.80;99.90;;;;;;5051546;28;20641;-79
2023/02/06 04:42:17;;;;;;;9.13;4.00;;;3.80;99.90;;;;;;5051395;28;20642;-78
2023/02/06 04:44:44;;;;;;;11.93;3.60;;;3.80;99.90;;;;;;5051372;28;20179;-79
2023/02/06 04:47:10;;;;;;;15.00;4.20;;;3.70;99.90;;;;;;5050029;28;20197;-79
2023/02/06 04:49:35;;;;;;;11.35;4.30;;;3.80;99.90;;;;;;5052407;28;20181;-78
2023/02/06 04:52:01;;;;;;;25.23;5.43;;;3.80;99.90;;;;;;5048941;28;20183;-79
2023/02/06 04:54:27;;;;;;;9.90;3.83;;;3.70;99.90;;;;;;5053912;28;20188;-79
2023/02/06 04:56:52;;;;;;;15.70;5.53;;;3.70;99.90;;;;;;5044176;28;20556;-79
2023/02/06 04:59:18;;;;;;;16.63;4.77;;;3.70;99.90;;;;;;5045494;28;20201;-78
2023/02/06 05:01:44;;;;;;;13.50;4.73;;;3.70;99.90;;;;;;5044440;28;20198;-79
2023/02/06 05:04:09;;;;;;;16.90;4.53;;;3.70;99.90;;;;;;5073203;28;20192;-78
2023/02/06 05:06:35;;;;;;;10.43;3.47;;;3.70;99.90;;;;;;5068985;28;20237;-78
2023/02/06 05:09:04;;;;;;;11.90;3.70;;;3.70;99.90;;;;;;5071322;28;20242;-78
2023/02/06 05:11:30;;;;;;;15.40;4.03;;;3.70;99.90;;;;;;5052412;28;20176;-78
2023/02/06 05:13:55;;;;;;;15.33;4.40;;;3.70;99.90;;;;;;5053139;28;20176;-78
2023/02/06 05:16:21;;;;;;;11.93;3.63;;;3.70;99.90;;;;;;5070752;28;20609;-78
2023/02/06 05:18:51;;;;;;;12.17;4.40;;;3.70;99.90;;;;;;5052685;28;20212;-79
2023/02/06 05:21:16;;;;;;;10.70;4.13;;;3.70;99.90;;;;;;5069737;28;20544;-78
2023/02/06 05:23:42;;;;;;;17.40;4.93;;;3.80;99.90;;;;;;5070792;28;20169;-78
2023/02/06 05:26:08;;;;;;;21.43;5.80;;;3.90;99.90;;;;;;5069198;28;20188;-78
2023/02/06 05:28:33;;;;;;;11.67;5.00;;;4.00;99.90;;;;;;5069688;28;20683;-77
2023/02/06 05:31:00;;;;;;;17.17;6.20;;;4.10;99.90;;;;;;5069377;28;20272;-77
2023/02/06 05:33:27;;;;;;;18.23;6.45;;;4.20;99.90;;;;;;5054048;28;20180;-78
2023/02/06 05:35:53;;;;;;;22.70;6.40;;;4.30;99.90;;;;;;5050338;28;20196;-78
2023/02/06 05:38:19;;;;;;;16.80;6.63;;;4.30;99.90;;;;;;5052821;28;20175;-77
2023/02/06 05:40:49;;;;;;;18.77;6.27;;;4.30;99.90;;;;;;5054008;28;20189;-77
2023/02/06 05:43:14;;;;;;;24.15;5.65;;;4.40;99.90;;;;;;5033080;28;20588;-77
2023/02/06 05:45:40;;;;;;;18.60;6.17;;;4.40;99.90;;;;;;5049745;28;20264;-77
2023/02/06 05:48:06;;;;;;;18.93;7.20;;;4.40;99.90;;;;;;5051490;28;20287;-78
2023/02/06 05:50:31;;;;;;;16.33;5.80;;;4.50;99.90;;;;;;5052958;28;20185;-78
2023/02/06 05:52:57;;;;;;;17.40;6.67;;;4.50;99.90;;;;;;5052914;28;20315;-77
2023/02/06 05:55:23;;;;;;;14.60;6.33;;;4.60;99.90;;;;;;5052468;28;20571;-77
2023/02/06 05:57:49;;;;;;;19.88;6.50;;;4.60;99.90;;;;;;5053117;28;20205;-77
2023/02/06 06:00:15;;;;;;;16.53;6.20;;;4.70;99.90;;;;;;5052707;28;20197;-77
2023/02/06 06:02:41;;;;;;;20.38;5.70;;;4.70;99.90;;;;;;5052256;28;20184;-77
2023/02/06 06:05:07;;;;;;;13.30;5.77;;;4.70;99.90;;;;;;5053362;28;20624;-77
2023/02/06 06:07:32;;;;;;;17.15;5.95;;;4.70;99.90;;;;;;5052877;28;20212;-77
2023/02/06 06:09:58;;;;;;;12.90;5.60;;;4.80;99.90;;;;;;5053800;28;20169;-77
2023/02/06 06:12:24;;;;;;;14.80;6.80;;;4.80;99.90;;;;;;5054949;28;20633;-78
2023/02/06 06:14:50;;;;;;;21.60;6.10;;;4.80;99.90;;;;;;5054595;28;20280;-78
2023/02/06 06:17:15;;;;;;;23.90;7.83;;;4.90;99.90;;;;;;5056599;28;20611;-77
2023/02/06 06:19:41;;;;;;;18.73;7.40;;;4.90;99.90;;;;;;5053494;28;20207;-77
2023/02/06 06:22:07;;;;;;;14.03;5.90;;;4.90;99.90;;;;;;5055125;28;20158;-78
2023/02/06 06:24:33;;;;;;;18.43;6.53;;;5.00;99.90;;;;;;5036692;28;20580;-77
2023/02/06 06:26:59;;;;;;;16.93;6.37;;;5.00;99.90;;;;;;5053064;28;20611;-77
2023/02/06 06:29:25;;;;;;;10.50;5.30;;;5.00;99.90;;;;;;5052905;28;20177;-78
2023/02/06 06:31:51;;;;;;;13.25;5.15;;;5.10;99.90;;;;;;5036231;28;20638;-77
2023/02/06 06:34:17;;;;;;;16.60;7.83;;;5.10;99.90;;;;;;5052259;28;20634;-77
2023/02/06 06:36:43;;;;;;;16.73;7.35;;;5.10;99.90;;;;;;5052248;28;20599;-78
2023/02/06 06:39:09;;;;;;;15.93;6.87;;;5.20;99.90;;;;;;5051909;28;20201;-77
2023/02/06 06:41:35;;;;;;;17.27;6.25;;;5.20;99.90;;;;;;5053604;28;20169;-77
2023/02/06 06:44:01;;;;;;;13.70;7.30;;;5.30;99.90;;;;;;5052701;28;20691;-78
2023/02/06 06:46:27;;;;;;;15.57;6.43;;;5.30;99.90;;;;;;5050526;28;21170;-77
2023/02/06 06:48:53;;;;;;;11.20;6.30;;;5.40;99.90;;;;;;5053034;28;20571;-78
2023/02/06 06:51:19;;;;;;;14.37;7.60;;;5.40;99.90;;;;;;5051764;28;20184;-78
2023/02/06 06:53:45;;;;;;;19.40;7.03;;;5.40;99.90;;;;;;5035606;28;20235;-78
2023/02/06 06:56:12;;;;;;;17.00;7.27;;;5.40;99.90;;;;;;5036953;28;20201;-76
2023/02/06 06:58:39;;;;;;;15.20;7.10;;;5.50;99.90;;;;;;5052247;28;20185;-78
2023/02/06 07:01:05;;;;;;;20.33;6.85;;;5.50;99.90;;;;;;5050636;28;20287;-77
2023/02/06 07:03:31;;;;;;;17.38;8.90;;;5.50;99.90;;;;;;5035023;28;20188;-77
2023/02/06 07:05:57;;;;;;;16.57;8.00;;;5.60;99.90;;;;;;5050994;28;20177;-77
2023/02/06 07:08:22;;;;;;;32.73;9.10;;;5.60;99.90;;;;;;5051365;28;20642;-77
2023/02/06 07:10:48;;;;;;;24.90;8.80;;;5.60;99.90;;;;;;5053249;28;20256;-77
2023/02/06 07:13:14;;;;;;;18.67;7.40;;;5.70;99.90;;;;;;5051254;28;20641;-77
2023/02/06 07:15:41;;;;;;;30.73;9.47;;;5.70;99.90;;;;;;5050851;28;20608;-78
2023/02/06 07:18:06;;;;;;;24.42;7.30;;;5.70;99.90;;;;;;5052158;28;20201;-77
2023/02/06 07:20:32;;;;;;;23.50;8.40;;;5.70;99.90;;;;;;5051368;28;20204;-78
2023/02/06 07:23:00;;;;;;;26.80;8.10;;;5.70;99.90;;;;;;5052428;28;20680;-77
2023/02/06 07:25:26;;;;;;;29.60;10.75;;;5.70;99.90;;;;;;5050270;28;20579;-79
2023/02/06 07:27:52;;;;;;;20.35;9.20;;;5.80;99.90;;;;;;5051451;28;20594;-79
2023/02/06 07:30:18;;;;;;;25.80;8.40;;;5.70;99.90;;;;;;5051114;28;20177;-79
2023/02/06 07:32:44;;;;;;;37.07;10.30;;;5.80;99.90;;;;;;5054714;28;20161;-78
2023/02/06 07:35:09;;;;;;;22.07;9.50;;;5.80;99.90;;;;;;5034204;28;20655;-78
2023/02/06 07:37:35;;;;;;;24.17;9.30;;;5.80;99.90;;;;;;5051450;28;20193;-78
2023/02/06 07:40:03;;;;;;;18.90;8.40;;;5.80;99.90;;;;;;5052399;28;20201;-78
2023/02/06 07:42:29;;;;;;;25.88;9.70;;;5.80;99.90;;;;;;5051571;28;20177;-78
2023/02/06 07:44:59;;;;;;;25.63;10.85;;;5.80;99.90;;;;;;5032639;28;20181;-78
2023/02/06 07:47:25;;;;;;;18.98;7.80;;;5.80;99.90;;;;;;5050961;28;20746;-78
2023/02/06 07:49:51;;;;;;;21.42;9.07;;;5.80;99.90;;;;;;5053239;28;20211;-77
2023/02/06 07:52:19;;;;;;;21.53;10.13;;;5.80;99.90;;;;;;5050924;28;20204;-77
2023/02/06 07:54:44;;;;;;;24.38;11.45;;;5.80;99.90;;;;;;5050837;28;20598;-78
2023/02/06 07:57:13;;;;;;;19.83;9.90;;;5.90;99.90;;;;;;5033950;28;20256;-77
2023/02/06 07:59:38;;;;;;;20.75;9.95;;;5.90;99.90;;;;;;5050967;28;20204;-77
2023/02/06 08:02:04;;;;;;;21.07;10.50;;;5.90;99.90;;;;;;5051944;28;20177;-78
2023/02/06 08:04:34;;;;;;;28.33;10.80;;;6.00;99.90;;;;;;5052437;28;20181;-78
2023/02/06 08:07:03;;;;;;;27.85;12.23;;;6.00;99.90;;;;;;5052242;28;20557;-77
2023/02/06 08:09:30;;;;;;;28.67;11.52;;;6.00;99.90;;;;;;5052507;28;20231;-79
2023/02/06 08:11:56;;;;;;;23.10;11.15;;;6.00;99.90;;;;;;5031625;28;20180;-78
2023/02/06 08:14:22;;;;;;;14.60;9.47;;;6.00;99.90;;;;;;5051460;28;20957;-78
2023/02/06 08:16:48;;;;;;;20.10;9.70;;;6.00;99.90;;;;;;5049355;28;20201;-78
2023/02/06 08:19:14;;;;;;;24.08;9.70;;;6.00;99.90;;;;;;5051071;28;20239;-78
2023/02/06 08:21:40;;;;;;;17.27;7.53;;;6.10;99.90;;;;;;5051867;28;20236;-78
2023/02/06 08:24:09;;;;;;;22.63;8.33;;;6.10;99.90;;;;;;5050729;28;20204;-78
2023/02/06 08:26:34;;;;;;;20.10;9.13;;;6.10;99.90;;;;;;5051667;28;20606;-78
2023/02/06 08:29:02;;;;;;;14.13;6.80;;;6.10;99.90;;;;;;5050558;28;20265;-77
2023/02/06 08:31:34;;;;;;;19.00;7.20;;;6.20;99.90;;;;;;5050022;28;20188;-76
2023/02/06 08:34:01;;;;;;;16.65;5.78;;;6.20;99.90;;;;;;5051675;28;20173;-77
2023/02/06 08:36:31;;;;;;;28.98;9.15;;;6.30;99.90;;;;;;5049218;28;20204;-77
2023/02/06 08:38:57;;;;;;;20.45;7.30;;;6.30;99.90;;;;;;5049885;28;20276;-79
2023/02/06 08:41:31;;;;;;;18.27;8.38;;;6.30;99.90;;;;;;5049273;28;20226;-79
2023/02/06 08:43:59;;;;;;;20.08;9.52;;;6.40;99.90;;;;;;5049643;28;20744;-80
2023/02/06 08:46:27;;;;;;;16.50;7.03;;;6.40;99.90;;;;;;5035313;28;20193;-79
2023/02/06 08:49:02;;;;;;;18.33;7.45;;;6.50;99.90;;;;;;5051392;28;20227;-76
2023/02/06 08:51:28;;;;;;;21.25;8.32;;;6.50;99.90;;;;;;5049437;28;20181;-77
2023/02/06 08:53:59;;;;;;;18.67;8.57;;;6.60;99.90;;;;;;5049338;28;20246;-78
2023/02/06 08:56:26;;;;;;;18.63;7.85;;;6.70;99.90;;;;;;5050129;28;20189;-77
2023/02/06 08:58:52;;;;;;;20.40;9.57;;;6.70;99.90;;;;;;5048991;28;20227;-77
2023/02/06 09:01:19;;;;;;;10.77;7.00;;;6.90;99.90;;;;;;5048814;28;20204;-78
2023/02/06 09:03:45;;;;;;;15.27;8.13;;;6.90;99.90;;;;;;5050255;28;20618;-78
2023/02/06 09:06:12;;;;;;;16.90;9.45;;;7.00;99.90;;;;;;5032415;28;20197;-77
2023/02/06 09:08:39;;;;;;;15.20;7.18;;;7.00;99.90;;;;;;5050738;28;20200;-79
2023/02/06 09:11:10;;;;;;;17.13;8.65;;;7.00;99.90;;;;;;5049504;28;20172;-78
2023/02/06 09:13:37;;;;;;;17.83;8.30;;;7.10;99.90;;;;;;5048955;28;20181;-77
2023/02/06 09:16:04;;;;;;;16.45;8.07;;;7.10;99.90;;;;;;5048721;28;20231;-78
2023/02/06 09:18:29;;;;;;;17.65;8.65;;;7.10;99.90;;;;;;5049241;28;20276;-80
2023/02/06 09:21:10;;;;;;;14.00;9.33;;;7.10;99.90;;;;;;5050397;28;20252;-80
2023/02/06 09:23:42;;;;;;;14.90;8.48;;;7.20;99.90;;;;;;5053754;28;20929;-77
2023/02/06 09:26:11;;;;;;;17.52;8.75;;;7.30;99.90;;;;;;5047776;28;20188;-77
2023/02/06 09:28:37;;;;;;;17.15;9.40;;;7.30;99.90;;;;;;5048130;28;20652;-78
2023/02/06 09:31:03;;;;;;;16.23;9.27;;;7.40;99.90;;;;;;5048802;28;20256;-78
2023/02/06 09:33:29;;;;;;;18.27;9.90;;;7.40;99.90;;;;;;5050570;28;20230;-78
2023/02/06 09:36:21;;;;;;;14.97;8.97;;;7.50;99.90;;;;;;5030239;28;20857;-78
2023/02/06 09:38:50;;;;;;;18.30;9.25;;;7.50;99.90;;;;;;5039350;28;20219;-78
2023/02/06 09:41:38;;;;;;;17.38;8.90;;;7.50;99.90;;;;;;5048580;28;20539;-78
2023/02/06 09:44:09;;;;;;;21.48;10.13;;;7.60;99.90;;;;;;5049017;28;20174;-78
2023/02/06 09:46:42;;;;;;;24.40;10.40;;;7.80;99.90;;;;;;5048649;28;20203;-77
2023/02/06 09:49:17;;;;;;;26.30;12.23;;;8.00;99.90;;;;;;5049075;28;20199;-80
2023/02/06 09:52:01;;;;;;;22.30;11.15;;;8.10;99.90;;;;;;5078752;22;20305;-77
2023/02/06 09:54:34;;;;;;;21.27;11.52;;;8.30;99.90;;;;;;5037232;28;20169;-76
2023/02/06 09:57:11;;;;;;;23.48;12.60;;;8.50;99.90;;;;;;5038833;28;20522;-76
2023/02/06 10:00:01;;;;;;;27.48;12.52;;;8.80;99.90;;;;;;5046749;28;20204;-76
2023/02/06 10:02:45;;;;;;;18.50;11.32;;;8.90;99.90;;;;;;5032138;28;20189;-77
2023/02/06 10:05:36;;;;;;;20.50;10.57;;;9.00;99.90;;;;;;5047988;28;20180;-77
2023/02/06 10:08:14;;;;;;;23.65;12.00;;;9.10;99.90;;;;;;5050512;28;20172;-77
2023/02/06 10:10:50;;;;;;;19.35;9.85;;;9.00;99.90;;;;;;5048289;28;20191;-77
2023/02/06 10:13:38;;;;;;;23.42;11.25;;;9.10;99.90;;;;;;5048138;28;20200;-77
2023/02/06 10:16:09;;;;;;;19.13;11.10;;;9.10;99.90;;;;;;5026141;28;20178;-77
2023/02/06 10:18:41;;;;;;;25.92;13.40;;;9.10;99.90;;;;;;5029016;28;20185;-75
2023/02/06 10:21:30;;;;;;;20.40;11.85;;;9.10;99.90;;;;;;5028252;28;20194;-76
2023/02/06 10:24:04;;;;;;;23.52;11.90;;;9.10;99.90;;;;;;5032584;28;20633;-76
2023/02/06 10:26:33;;;;;;;21.77;11.98;;;9.10;99.90;;;;;;5044139;28;20264;-77
2023/02/06 10:28:59;;;;;;;22.45;13.00;;;9.10;99.90;;;;;;5047783;28;20532;-75
2023/02/06 10:31:25;;;;;;;19.17;12.00;;;9.10;99.90;;;;;;5037083;28;20189;-76
2023/02/06 10:34:12;;;;;;;21.93;13.33;;;9.20;99.90;;;;;;5015613;28;20181;-76
2023/02/06 10:36:43;;;;;;;18.25;11.20;;;9.40;99.90;;;;;;5033182;28;20185;-75
2023/02/06 10:39:38;;;;;;;21.05;12.13;;;9.60;99.90;;;;;;5031624;28;20194;-75
2023/02/06 10:42:54;;;;;;;18.60;12.80;;;9.80;99.90;;;;;;5031918;28;20197;-75
2023/02/06 10:45:41;;;;;;;17.65;11.10;;;10.10;99.90;;;;;;5016558;28;20542;-75
2023/02/06 10:48:32;;;;;;;17.83;10.82;;;10.30;99.90;;;;;;5052246;28;20272;-76
2023/02/06 10:51:26;;;;;;;16.05;9.50;;;10.40;99.90;;;;;;5052106;28;20173;-76
2023/02/06 10:53:56;;;;;;;18.98;11.57;;;10.50;99.90;;;;;;5011851;28;20171;-76
2023/02/06 10:56:27;;;;;;;18.90;11.32;;;10.70;99.90;;;;;;5027969;28;20197;-75
2023/02/06 10:59:50;;;;;;;19.35;11.40;;;10.80;99.90;;;;;;4980643;28;20206;-76
2023/02/06 11:02:49;;;;;;;19.95;11.13;;;10.90;99.90;;;;;;5027814;28;20205;-77
2023/02/06 11:05:30;;;;;;;18.80;11.68;;;10.90;99.90;;;;;;5050830;28;20173;-75
2023/02/06 11:08:09;;;;;;;17.58;10.43;;;11.00;99.90;;;;;;5053316;28;20219;-75
2023/02/06 11:10:36;;;;;;;22.60;11.73;;;10.90;99.90;;;;;;5041109;28;20264;-76
2023/02/06 11:13:04;;;;;;;19.27;11.10;;;10.80;99.90;;;;;;5031295;28;20285;-76
2023/02/06 11:15:36;;;;;;;19.50;11.10;;;10.70;99.90;;;;;;5032246;28;20205;-76
2023/02/06 11:18:06;;;;;;;21.08;11.57;;;10.60;99.90;;;;;;5031474;28;20186;-76
2023/02/06 11:20:35;;;;;;;18.10;10.32;;;10.50;99.90;;;;;;5032775;28;20585;-77
2023/02/06 11:23:23;;;;;;;18.30;9.82;;;10.50;99.90;;;;;;5032062;28;20182;-77
2023/02/06 11:26:01;;;;;;;21.33;10.07;;;10.30;99.90;;;;;;5037948;28;20169;-76
2023/02/06 11:28:28;;;;;;;14.90;9.38;;;10.20;99.90;;;;;;5052397;28;20215;-76
2023/02/06 11:31:03;;;;;;;21.77;9.63;;;10.00;99.90;;;;;;5034681;28;20169;-76
2023/02/06 11:33:38;;;;;;;17.02;10.75;;;10.00;99.90;;;;;;5049722;28;20199;-76
2023/02/06 11:36:06;;;;;;;21.92;11.65;;;10.00;99.90;;;;;;5050048;28;20414;-76
2023/02/06 11:38:33;;;;;;;22.85;11.77;;;10.00;99.90;;;;;;5052084;28;20177;-76
2023/02/06 11:41:03;;;;;;;22.67;11.15;;;10.00;99.90;;;;;;5052528;28;20173;-75
2023/02/06 11:43:42;;;;;;;19.02;11.95;;;10.00;99.90;;;;;;5050417;28;20306;-76
2023/02/06 11:46:13;;;;;;;20.73;13.00;;;10.00;99.90;;;;;;5049967;28;20169;-76
2023/02/06 11:48:43;;;;;;;17.17;11.27;;;10.00;99.90;;;;;;5050519;28;20172;-76
2023/02/06 11:51:12;;;;;;;21.30;13.95;;;10.00;99.90;;;;;;5039393;28;20174;-75
2023/02/06 11:53:52;;;;;;;23.00;13.43;;;10.00;99.90;;;;;;5031348;28;20205;-76
2023/02/06 11:56:19;;;;;;;23.63;14.95;;;10.00;99.90;;;;;;5029861;28;20169;-76
2023/02/06 11:58:59;;;;;;;24.17;15.98;;;9.90;99.90;;;;;;5030872;28;20173;-76
2023/02/06 12:01:25;;;;;;;25.67;15.35;;;9.80;99.90;;;;;;5031072;28;20174;-76
2023/02/06 12:03:54;;;;;;;23.53;14.27;;;9.70;99.90;;;;;;5030818;28;20208;-76
2023/02/06 12:06:35;;;;;;;25.05;15.93;;;9.70;99.90;;;;;;5012751;28;21007;-77
2023/02/06 12:09:10;;;;;;;27.80;17.55;;;9.60;99.90;;;;;;5030894;28;20201;-76
2023/02/06 12:11:41;;;;;;;23.33;17.27;;;9.50;99.90;;;;;;4996900;28;20181;-76
2023/02/06 12:14:39;;;;;;;23.48;14.50;;;9.40;99.90;;;;;;5031853;28;20182;-76
2023/02/06 12:17:36;;;;;;;20.52;13.02;;;9.40;99.90;;;;;;5011955;28;20189;-76
2023/02/06 12:20:17;;;;;;;17.75;11.98;;;9.30;99.90;;;;;;5026910;28;20220;-77
2023/02/06 12:22:53;;;;;;;23.60;14.02;;;9.40;99.90;;;;;;5031039;28;20194;-77
2023/02/06 12:25:35;;;;;;;28.40;14.95;;;9.40;99.90;;;;;;5031959;28;20195;-76
2023/02/06 12:28:23;;;;;;;19.55;13.70;;;9.30;99.90;;;;;;5050268;28;20531;-76
2023/02/06 12:31:33;;;;;;;21.25;13.95;;;9.20;99.90;;;;;;5049765;28;20263;-77
2023/02/06 12:34:15;;;;;;;23.25;13.35;;;9.10;99.90;;;;;;5045701;28;20184;-76
2023/02/06 12:37:09;;;;;;;26.40;15.40;;;9.10;99.90;;;;;;5049215;28;20208;-76
2023/02/06 12:39:35;;;;;;;23.65;14.02;;;9.10;99.90;;;;;;5050746;28;20605;-77
2023/02/06 12:42:14;;;;;;;18.27;12.57;;;9.20;99.90;;;;;;5050786;28;20224;-76
2023/02/06 12:44:55;;;;;;;17.52;11.60;;;9.20;99.90;;;;;;5041461;28;20610;-76
2023/02/06 12:47:48;;;;;;;22.90;14.57;;;9.20;99.90;;;;;;5029508;28;20223;-76
2023/02/06 12:50:18;;;;;;;19.80;11.25;;;9.10;99.90;;;;;;5030500;28;20257;-76
2023/02/06 12:53:35;;;;;;;21.05;11.05;;;9.10;99.90;;;;;;5032529;28;20217;-77
2023/02/06 12:56:23;;;;;;;18.42;11.27;;;9.00;99.90;;;;;;5019565;28;20193;-76
2023/02/06 12:59:20;;;;;;;20.42;11.45;;;9.00;99.90;;;;;;5034848;28;20184;-76
2023/02/06 13:02:04;;;;;;;19.92;9.90;;;9.10;99.90;;;;;;5033131;28;20641;-76
2023/02/06 13:04:35;;;;;;;18.65;10.07;;;9.20;99.90;;;;;;5042054;28;20173;-77
2023/02/06 13:07:10;;;;;;;19.77;10.30;;;9.30;99.90;;;;;;5049216;28;20176;-76